Terminal Aerodrome Forecast
Issued by NWS

Home | Current Version | Previous Version | Text Only | Print | Product List | Glossary On
Versions: 1 2 3 4 5 6 7 8 9 10 11 12
000
FTUS42 KGSP 041122
TAFGMU
TAF
KGMU 041122Z 0412/0512 20003KT P6SM BKN250
     FM041500 21005KT P6SM FEW050 BKN250
     FM041800 22006KT P6SM SCT060 BKN250
     FM050400 00000KT P6SM BKN250=

USA.gov is the U.S. government's official web portal to all federal, state and local government web resources and services.